Terminal Aerodrome Forecast
Issued by NWS Twin Cities, MN

Home | Current Version | Previous Version | Text Only | Print | Product List | Glossary On
Versions: 1 2 3 4 5 6 7 8 9 10 11 12 13 14 15 16 17 18
000
FTUS43 KMPX 181120
TAFSTC
TAF
KSTC 181120Z 1812/1912 11004KT P6SM BKN110
     FM181500 16011KT P6SM -RA BKN060 OVC100
     FM181900 16011G17KT P6SM BKN025 OVC040
     FM190100 14007KT P6SM SCT008 OVC015
     FM190700 13004KT 6SM BR OVC007=

USA.gov is the U.S. government's official web portal to all federal, state and local government web resources and services.